ECH weather

Echuca Airport
Victoria, Australia

Public forecast

Using degrees Celsius for public forecast. Weather courtesy of forecast.io.

Closest aviation weather report (METAR) to Echuca Airport

Closest report is Wangaratta Airport, 76.4 nm (141.4 km) ESE. Retrieved 2020/02/23 11:00 UTC (28 minutes ago):

YWGT 231100Z AUTO 36004KT 9999 // SCT065 26/14 Q1019

Closest aviation forecast (TAF) to Echuca Airport

Forecast is more than 6 hours old.

Closest forecast is Wangaratta Airport, 76.4 nm (141.4 km) ESE. Retrieved 2020-02-23 02:33 UTC (9 hours ago):

TAF TAF YWGT 230119Z 2302/2314 36010KT 9999 -SHRA SCT050